Terminal Aerodrome Forecast
Issued by NWS

Home | Current Version | Previous Version | Text Only | Print | Product List | Glossary On
Versions: 1 2 3 4 5 6 7 8 9 10 11 12 13 14 15 16 17 18
000
FTUS45 KREV 250521
TAFTRK
TAF
KTRK 250521Z 2506/2606 VRB03KT P6SM BKN035 OVC050
     FM251200 VRB03KT P6SM VCSH BKN030 OVC040
     FM252200 VRB03KT P6SM OVC040=

USA.gov is the U.S. government's official web portal to all federal, state and local government web resources and services.